Time;durP1;ratioP1;P1;durP2;ratioP2;P2;SDS_P1;SDS_P2;PMS_P1;PMS_P2;Temp;Humidity;BMP_temperature;BMP_pressure;BME280_temperature;BME280_humidity;BME280_pressure;Samples;Min_cycle;Max_cycle;Signal;HPM_P1;HPM_P2
2022/03/22 00:02:31;;;;;;;89.90;44.10;;;;;;;0.12;43.19;102477.23;130306;1271;98398;-73
2022/03/22 00:05:34;;;;;;;97.20;45.10;;;;;;;0.08;43.22;102477.85;130303;1271;99159;-74
2022/03/22 00:08:36;;;;;;;88.30;41.70;;;;;;;0.02;43.36;102475.69;130326;1271;98074;-73
2022/03/22 00:11:39;;;;;;;90.30;43.00;;;;;;;0.01;43.43;102474.67;130256;1271;98003;-73
2022/03/22 00:14:43;;;;;;;92.40;42.90;;;;;;;-0.01;43.57;102473.30;130394;1271;99060;-74
2022/03/22 00:17:46;;;;;;;92.10;42.00;;;;;;;-0.01;43.80;102469.27;130224;1271;98000;-74
2022/03/22 00:20:49;;;;;;;86.70;41.20;;;;;;;-0.03;43.68;102469.48;130354;1271;99149;-74
2022/03/22 00:23:52;;;;;;;89.20;42.00;;;;;;;-0.04;43.64;102473.71;129938;1269;547048;-75
2022/03/22 00:26:55;;;;;;;89.40;42.70;;;;;;;-0.07;43.79;102472.89;130308;1271;99037;-74
2022/03/22 00:29:58;;;;;;;86.30;41.30;;;;;;;-0.08;43.68;102470.11;130320;1270;99179;-76
2022/03/22 00:33:04;;;;;;;83.40;40.30;;;;;;;-0.08;43.73;102473.43;130303;1270;97976;-75
2022/03/22 00:36:07;;;;;;;87.30;42.60;;;;;;;-0.11;43.92;102469.13;130259;1271;99156;-75
2022/03/22 00:39:09;;;;;;;88.70;41.10;;;;;;;-0.14;44.16;102467.25;130342;1271;98856;-75
2022/03/22 00:42:14;;;;;;;86.90;41.10;;;;;;;-0.14;44.06;102467.77;130274;1271;98075;-74
2022/03/22 00:45:17;;;;;;;89.30;41.60;;;;;;;-0.17;43.98;102462.95;130259;1270;99250;-71
2022/03/22 00:48:20;;;;;;;89.20;41.80;;;;;;;-0.19;44.22;102460.70;130358;1269;99137;-73
2022/03/22 00:51:24;;;;;;;91.10;42.10;;;;;;;-0.24;44.42;102460.45;130186;1270;98028;-72
2022/03/22 00:54:26;;;;;;;86.60;42.00;;;;;;;-0.28;44.40;102458.42;130311;1270;97976;-73
2022/03/22 00:57:29;;;;;;;86.50;41.10;;;;;;;-0.28;44.35;102456.52;130298;1270;97975;-73
2022/03/22 01:00:33;;;;;;;88.00;42.20;;;;;;;-0.29;44.44;102454.26;130163;1270;98611;-72
2022/03/22 01:03:36;;;;;;;92.00;41.80;;;;;;;-0.32;44.28;102450.99;130210;1270;98011;-72
2022/03/22 01:06:38;;;;;;;93.20;41.80;;;;;;;-0.35;44.76;102451.41;130281;1270;97979;-73
2022/03/22 01:09:41;;;;;;;89.20;41.00;;;;;;;-0.40;44.78;102449.20;130363;1271;98761;-73
2022/03/22 01:12:45;;;;;;;88.30;41.70;;;;;;;-0.42;44.73;102449.77;130364;1271;98049;-76
2022/03/22 01:15:49;;;;;;;92.60;42.20;;;;;;;-0.44;44.70;102446.13;130381;1270;98128;-74
2022/03/22 01:18:51;;;;;;;89.70;41.70;;;;;;;-0.45;44.79;102445.42;130337;1269;98029;-75
2022/03/22 01:21:54;;;;;;;85.80;39.60;;;;;;;-0.48;44.88;102444.10;130340;1268;98028;-75
2022/03/22 01:25:00;;;;;;;90.80;43.40;;;;;;;-0.53;44.97;102441.93;130370;1268;98036;-71
2022/03/22 01:28:04;;;;;;;89.50;42.90;;;;;;;-0.57;45.09;102440.77;130341;1268;98000;-72
2022/03/22 01:31:06;;;;;;;88.30;41.40;;;;;;;-0.61;45.09;102441.56;130418;1268;97963;-71
2022/03/22 01:34:09;;;;;;;90.70;42.20;;;;;;;-0.64;44.86;102443.16;130334;1268;98735;-72
2022/03/22 01:37:12;;;;;;;89.40;41.80;;;;;;;-0.65;45.18;102442.83;130313;1268;98024;-72
2022/03/22 01:40:16;;;;;;;88.50;41.40;;;;;;;-0.66;45.26;102443.20;130344;1268;97969;-73
2022/03/22 01:43:18;;;;;;;92.00;42.00;;;;;;;-0.67;45.24;102443.75;130381;1267;98410;-73
2022/03/22 01:46:24;;;;;;;84.50;40.80;;;;;;;-0.69;45.00;102445.20;130369;1268;99063;-73
2022/03/22 01:49:27;;;;;;;83.40;39.00;;;;;;;-0.76;45.16;102443.56;130359;1268;98559;-72
2022/03/22 01:52:34;;;;;;;86.50;40.20;;;;;;;-0.79;45.45;102448.50;130426;1268;97991;-72
2022/03/22 01:55:38;;;;;;;85.40;39.40;;;;;;;-0.78;45.54;102449.71;130324;1268;99209;-73
2022/03/22 01:58:41;;;;;;;85.00;39.90;;;;;;;-0.78;45.34;102450.06;130308;1268;98142;-72
2022/03/22 02:08:32;;;;;;;93.00;40.40;;;;;;;-0.84;45.57;102452.08;130367;1268;97980;-71
2022/03/22 02:11:34;;;;;;;90.20;40.50;;;;;;;-0.85;45.65;102450.69;130394;1268;97992;-72
2022/03/22 02:14:37;;;;;;;88.70;40.70;;;;;;;-0.86;45.79;102447.73;130273;1268;97978;-72
2022/03/22 02:17:45;;;;;;;93.00;41.80;;;;;;;-0.87;45.74;102446.36;130368;1268;98751;-71
2022/03/22 02:20:48;;;;;;;89.20;39.20;;;;;;;-0.89;45.83;102448.13;130238;1268;99064;-72
2022/03/22 02:23:53;;;;;;;86.80;40.00;;;;;;;-0.90;45.98;102445.38;130345;1268;98735;-73
2022/03/22 02:26:56;;;;;;;90.40;40.00;;;;;;;-0.91;46.27;102450.11;130395;1268;98054;-75
2022/03/22 02:29:59;;;;;;;87.60;39.30;;;;;;;-0.96;46.16;102445.46;130328;1268;98004;-74
2022/03/22 02:33:02;;;;;;;90.10;39.00;;;;;;;-1.01;46.34;102446.25;130302;1268;99131;-75
2022/03/22 02:36:06;;;;;;;90.90;39.30;;;;;;;-1.03;46.43;102445.73;130291;1268;99071;-74
2022/03/22 02:39:08;;;;;;;84.50;38.50;;;;;;;-1.03;46.49;102449.07;130311;1268;99175;-74
2022/03/22 02:42:11;;;;;;;84.50;38.70;;;;;;;-1.05;46.39;102447.34;130366;1268;98074;-75
2022/03/22 02:45:14;;;;;;;86.20;39.80;;;;;;;-1.11;46.52;102445.19;130331;1268;99174;-73
2022/03/22 02:48:18;;;;;;;89.90;39.20;;;;;;;-1.16;46.49;102442.64;130342;1268;97992;-72
2022/03/22 02:51:20;;;;;;;84.60;39.10;;;;;;;-1.20;46.56;102446.17;130292;1268;98761;-73
2022/03/22 02:54:23;;;;;;;85.00;38.00;;;;;;;-1.21;46.80;102447.06;130355;1268;97975;-72
2022/03/22 02:57:26;;;;;;;84.10;37.80;;;;;;;-1.25;46.81;102450.63;130315;1268;99083;-72
2022/03/22 03:00:29;;;;;;;87.50;38.00;;;;;;;-1.26;47.05;102451.16;130365;1268;98754;-73
2022/03/22 03:03:32;;;;;;;82.40;38.90;;;;;;;-1.28;46.92;102460.45;130333;1268;98415;-75
2022/03/22 03:06:35;;;;;;;80.00;38.70;;;;;;;-1.31;47.26;102460.84;130363;1268;98662;-74
2022/03/22 03:09:38;;;;;;;87.70;38.30;;;;;;;-1.32;47.05;102463.66;130389;1268;99034;-73
2022/03/22 03:12:42;;;;;;;81.80;37.30;;;;;;;-1.30;47.23;102464.67;130300;1268;97966;-74
2022/03/22 03:15:44;;;;;;;80.50;37.40;;;;;;;-1.30;47.28;102466.26;130336;1268;99041;-73
2022/03/22 03:18:49;;;;;;;79.10;37.20;;;;;;;-1.33;47.08;102467.16;130319;1268;98049;-73
2022/03/22 03:21:51;;;;;;;84.00;37.60;;;;;;;-1.34;47.20;102469.80;130368;1268;97994;-73
2022/03/22 03:24:54;;;;;;;82.30;38.20;;;;;;;-1.33;47.24;102468.56;130330;1268;98641;-73
2022/03/22 03:27:57;;;;;;;86.10;38.00;;;;;;;-1.36;47.27;102467.03;130328;1268;98071;-73
2022/03/22 03:30:59;;;;;;;84.20;37.70;;;;;;;-1.38;47.35;102467.25;130293;1268;99038;-74
2022/03/22 03:34:02;;;;;;;77.80;37.30;;;;;;;-1.38;47.41;102464.44;130308;1267;99743;-72
2022/03/22 03:37:06;;;;;;;88.10;39.40;;;;;;;-1.40;47.64;102468.66;130322;1268;98592;-73
2022/03/22 03:40:10;;;;;;;84.00;37.70;;;;;;;-1.43;47.51;102470.63;130342;1268;99181;-74
2022/03/22 03:43:13;;;;;;;87.20;40.50;;;;;;;-1.44;47.59;102474.13;130291;1268;97995;-73
2022/03/22 03:49:39;;;;;;;91.30;39.90;;;;;;;-1.48;47.70;102471.56;130330;1268;99038;-75
2022/03/22 03:52:41;;;;;;;86.50;40.20;;;;;;;-1.53;47.62;102474.77;130385;1268;99172;-75
2022/03/22 03:55:44;;;;;;;90.40;40.60;;;;;;;-1.71;47.31;102478.85;130358;1268;99149;-74
2022/03/22 03:58:47;;;;;;;94.80;41.50;;;;;;;-1.85;47.80;102483.56;130338;1268;98577;-74
2022/03/22 04:01:50;;;;;;;87.20;40.60;;;;;;;-1.81;47.89;102483.69;130365;1268;97967;-74
2022/03/22 04:04:53;;;;;;;91.80;41.70;;;;;;;-1.80;48.00;102483.84;130376;1268;98304;-74
2022/03/22 04:07:55;;;;;;;96.00;43.50;;;;;;;-1.78;48.02;102483.83;130316;1268;99161;-74
2022/03/22 04:10:58;;;;;;;95.90;44.30;;;;;;;-1.79;47.98;102482.09;130367;1268;97989;-75
2022/03/22 04:14:01;;;;;;;98.00;42.30;;;;;;;-1.80;47.91;102482.11;130329;1268;97992;-74
2022/03/22 04:17:08;;;;;;;90.90;42.40;;;;;;;-1.81;48.36;102485.08;130293;1268;98642;-73
2022/03/22 04:20:12;;;;;;;94.50;41.50;;;;;;;-1.82;48.29;102484.23;130316;1268;99181;-75
2022/03/22 04:23:15;;;;;;;87.40;40.20;;;;;;;-1.83;48.29;102485.80;130363;1268;97975;-75
2022/03/22 04:26:18;;;;;;;90.10;40.90;;;;;;;-1.83;48.37;102486.69;130296;1268;97962;-75
2022/03/22 04:32:42;;;;;;;91.50;41.60;;;;;;;-1.84;48.50;102483.73;130323;1268;98062;-75
2022/03/22 04:35:45;;;;;;;93.20;43.10;;;;;;;-1.84;48.51;102484.77;130318;1268;98568;-76
2022/03/22 04:38:48;;;;;;;91.90;41.90;;;;;;;-1.87;48.47;102485.33;130343;1268;99040;-73
2022/03/22 04:41:51;;;;;;;94.20;42.50;;;;;;;-1.88;48.53;102489.00;130473;1268;98062;-75
2022/03/22 04:44:54;;;;;;;96.10;43.40;;;;;;;-1.90;48.46;102492.00;130078;1270;98749;-77
2022/03/22 04:47:57;;;;;;;94.00;43.10;;;;;;;-1.89;48.67;102492.67;130057;1270;97992;-75
2022/03/22 04:57:54;;;;;;;95.30;42.30;;;;;;;-1.85;48.76;102498.55;130070;1270;99161;-75
2022/03/22 05:00:56;;;;;;;96.00;43.10;;;;;;;-1.83;49.02;102499.23;130188;1270;97959;-76
2022/03/22 05:03:59;;;;;;;94.70;42.20;;;;;;;-1.81;48.86;102499.73;130270;1270;98055;-76
2022/03/22 05:07:02;;;;;;;98.20;44.40;;;;;;;-1.76;49.06;102498.80;130380;1270;97992;-76
2022/03/22 05:10:08;;;;;;;100.60;45.30;;;;;;;-1.71;49.05;102495.42;130049;1270;97997;-76
2022/03/22 05:13:11;;;;;;;92.50;43.80;;;;;;;-1.67;48.90;102500.79;130126;1270;98349;-77
2022/03/22 05:16:14;;;;;;;100.10;45.70;;;;;;;-1.63;49.06;102498.98;130061;1270;97972;-77
2022/03/22 05:19:18;;;;;;;101.20;45.80;;;;;;;-1.57;49.26;102497.70;130244;1270;97946;-77
2022/03/22 05:22:21;;;;;;;96.70;44.10;;;;;;;-1.53;49.39;102493.62;130136;1270;98606;-76
2022/03/22 05:25:23;;;;;;;102.00;45.60;;;;;;;-1.49;49.50;102492.35;130085;1269;99076;-77
2022/03/22 05:28:27;;;;;;;105.30;46.20;;;;;;;-1.42;49.47;102495.75;130106;1270;98876;-76
2022/03/22 05:31:29;;;;;;;102.00;46.20;;;;;;;-1.34;49.71;102495.11;130101;1270;98761;-76
2022/03/22 05:34:32;;;;;;;100.90;44.80;;;;;;;-1.23;49.63;102497.06;130292;1269;98043;-77
2022/03/22 05:37:35;;;;;;;98.20;46.80;;;;;;;-1.13;49.72;102500.23;130213;1270;98002;-75
2022/03/22 05:40:39;;;;;;;97.50;44.20;;;;;;;-1.03;49.71;102497.96;130160;1270;99162;-76
2022/03/22 05:43:42;;;;;;;100.20;45.90;;;;;;;-0.90;50.06;102496.20;130292;1270;98062;-76
2022/03/22 05:46:45;;;;;;;102.30;47.60;;;;;;;-0.78;49.81;102501.27;130190;1270;99188;-75
2022/03/22 05:49:48;;;;;;;108.90;50.60;;;;;;;-0.67;50.04;102499.52;130388;1269;99153;-77
2022/03/22 05:52:50;;;;;;;98.60;48.20;;;;;;;-0.57;50.23;102498.47;130286;1269;97999;-75
2022/03/22 05:55:53;;;;;;;104.40;48.40;;;;;;;-0.47;50.38;102498.82;130263;1270;99171;-73
2022/03/22 05:58:58;;;;;;;99.70;47.90;;;;;;;-0.36;50.42;102500.18;130331;1269;97976;-75
2022/03/22 06:02:01;;;;;;;103.30;49.10;;;;;;;-0.24;50.67;102500.85;130291;1270;99082;-75
2022/03/22 06:05:07;;;;;;;105.00;49.90;;;;;;;-0.12;50.57;102502.53;130410;1270;99149;-77
2022/03/22 06:08:10;;;;;;;103.60;50.30;;;;;;;0.01;50.72;102505.64;130339;1270;98160;-76
2022/03/22 06:11:13;;;;;;;114.80;53.60;;;;;;;0.13;50.80;102501.89;130711;1270;98025;-77
2022/03/22 06:14:15;;;;;;;110.00;52.50;;;;;;;0.24;50.91;102505.34;130597;1270;98084;-76
2022/03/22 06:17:18;;;;;;;112.50;52.90;;;;;;;0.33;50.86;102508.15;130370;1270;98359;-79
2022/03/22 06:20:23;;;;;;;107.70;51.80;;;;;;;0.41;51.19;102502.73;130303;1270;99153;-80
2022/03/22 06:23:26;;;;;;;111.60;52.70;;;;;;;0.55;51.39;102502.59;130498;1270;98774;-79
2022/03/22 06:26:28;;;;;;;117.80;56.90;;;;;;;0.67;51.49;102500.23;130587;1268;98099;-77
2022/03/22 06:29:31;;;;;;;115.20;55.80;;;;;;;0.77;51.72;102497.56;130375;1268;98559;-77
2022/03/22 06:32:41;;;;;;;100.00;49.60;;;;;;;0.92;51.62;102498.80;130350;1268;98005;-76
2022/03/22 06:35:46;;;;;;;96.20;49.40;;;;;;;1.09;51.67;102497.50;130321;1269;98000;-79
2022/03/22 06:38:49;;;;;;;100.40;49.40;;;;;;;1.29;51.64;102493.89;130377;1268;97992;-80
2022/03/22 06:41:51;;;;;;;103.00;49.10;;;;;;;1.47;51.85;102493.25;130463;1268;98724;-78
2022/03/22 06:44:54;;;;;;;88.00;46.10;;;;;;;1.67;51.67;102494.12;130980;1270;98041;-76
2022/03/22 06:47:57;;;;;;;82.10;43.60;;;;;;;1.89;51.37;102491.27;130197;1269;98062;-77
2022/03/22 06:50:59;;;;;;;85.10;44.70;;;;;;;2.11;51.41;102491.69;130418;1270;99156;-79
2022/03/22 06:54:02;;;;;;;80.40;42.40;;;;;;;2.33;51.30;102493.00;130434;1269;97977;-74
2022/03/22 06:57:06;;;;;;;81.40;42.80;;;;;;;2.53;51.12;102488.19;130437;1269;99178;-73
2022/03/22 07:00:11;;;;;;;77.70;42.20;;;;;;;2.75;51.31;102490.34;131418;1270;99152;-71
2022/03/22 07:03:14;;;;;;;80.80;42.70;;;;;;;2.97;51.23;102488.79;130275;1270;97995;-74
2022/03/22 07:06:17;;;;;;;84.60;42.20;;;;;;;3.17;51.36;102483.20;130167;1270;97972;-76
2022/03/22 07:09:19;;;;;;;80.60;41.30;;;;;;;3.37;51.16;102483.05;130506;1270;99212;-76
2022/03/22 07:12:22;;;;;;;74.00;40.60;;;;;;;3.56;51.11;102485.23;130356;1269;97976;-75
2022/03/22 07:15:30;;;;;;;73.00;39.60;;;;;;;3.75;51.05;102482.64;130454;1269;97974;-77
2022/03/22 07:18:33;;;;;;;67.40;37.20;;;;;;;3.94;51.00;102481.08;130374;1270;98043;-76
2022/03/22 07:21:35;;;;;;;65.90;36.60;;;;;;;4.13;50.96;102486.20;130425;1269;99188;-77
2022/03/22 07:24:38;;;;;;;66.20;37.10;;;;;;;4.31;50.98;102485.02;130237;1270;97977;-77
2022/03/22 07:27:41;;;;;;;64.60;35.80;;;;;;;4.52;50.82;102485.09;130225;1270;98100;-76
2022/03/22 07:30:43;;;;;;;66.00;36.80;;;;;;;4.72;50.62;102484.35;130151;1270;97977;-76
2022/03/22 07:33:46;;;;;;;58.00;33.50;;;;;;;4.92;50.57;102487.05;130142;1269;98619;-78
2022/03/22 07:36:52;;;;;;;54.00;31.30;;;;;;;5.12;50.54;102483.10;130251;1270;97998;-77
2022/03/22 07:39:55;;;;;;;56.10;30.90;;;;;;;5.31;50.29;102482.29;130356;1270;99149;-76
2022/03/22 07:42:57;;;;;;;48.30;28.30;;;;;;;5.50;50.16;102485.02;130359;1268;99168;-76
2022/03/22 07:46:01;;;;;;;46.60;28.00;;;;;;;5.69;49.86;102480.67;130273;1269;97997;-76
2022/03/22 07:55:57;;;;;;;;;;;;;;;6.22;49.82;102480.30;129639;1276;98188;-76
2022/03/22 07:59:00;;;;;;;53.80;28.50;;;;;;;6.38;49.57;102480.61;130491;1269;98712;-74
2022/03/22 08:02:04;;;;;;;71.70;35.60;;;;;;;6.54;49.44;102478.48;130364;1270;99178;-75
2022/03/22 08:05:08;;;;;;;68.90;33.50;;;;;;;6.70;49.46;102476.46;130384;1270;98096;-75
2022/03/22 08:08:12;;;;;;;57.40;30.70;;;;;;;6.83;49.25;102474.06;130325;1270;97973;-75
2022/03/22 08:11:15;;;;;;;73.60;37.00;;;;;;;6.99;49.26;102471.73;130244;1270;99156;-75
2022/03/22 08:14:19;;;;;;;61.10;31.90;;;;;;;7.14;49.32;102469.02;130263;1270;98063;-75
2022/03/22 08:17:23;;;;;;;52.90;30.50;;;;;;;7.26;49.11;102466.86;130276;1270;97966;-75
2022/03/22 08:20:30;;;;;;;46.30;28.00;;;;;;;7.38;49.29;102464.11;130213;1270;98040;-75
2022/03/22 08:23:32;;;;;;;47.30;28.60;;;;;;;7.53;49.05;102464.42;130249;1269;98001;-75
2022/03/22 08:26:36;;;;;;;46.70;27.80;;;;;;;7.66;49.00;102460.56;130299;1268;98529;-77
2022/03/22 08:29:39;;;;;;;48.00;27.20;;;;;;;7.81;48.82;102460.84;130319;1268;99174;-74
2022/03/22 08:32:43;;;;;;;44.80;25.90;;;;;;;7.94;48.70;102461.04;130329;1268;98285;-76
2022/03/22 08:35:48;;;;;;;42.30;25.70;;;;;;;8.08;48.53;102464.70;130334;1268;99054;-74
2022/03/22 08:38:52;;;;;;;41.60;26.40;;;;;;;8.22;48.58;102460.79;130275;1269;98066;-76
2022/03/22 08:41:55;;;;;;;38.30;23.70;;;;;;;8.34;48.46;102457.63;130372;1270;98065;-75
2022/03/22 08:44:57;;;;;;;39.70;22.30;;;;;;;8.46;48.14;102460.38;130263;1269;99255;-76
2022/03/22 08:48:02;;;;;;;34.60;20.90;;;;;;;8.58;48.05;102457.94;130297;1268;97969;-75
2022/03/22 08:51:05;;;;;;;34.30;22.00;;;;;;;8.72;47.87;102456.84;130341;1268;99102;-73
2022/03/22 08:54:07;;;;;;;37.00;21.80;;;;;;;8.82;47.74;102460.34;130372;1269;99162;-75
2022/03/22 08:57:11;;;;;;;36.20;21.00;;;;;;;8.91;47.65;102455.00;130336;1268;97964;-73
2022/03/22 09:00:16;;;;;;;34.80;21.70;;;;;;;9.04;47.49;102452.64;130242;1269;97996;-73
2022/03/22 09:03:21;;;;;;;33.30;21.60;;;;;;;9.16;47.36;102450.54;130387;1270;99088;-72
2022/03/22 09:06:24;;;;;;;33.10;21.20;;;;;;;9.26;47.43;102448.70;130346;1268;97970;-74
2022/03/22 09:09:29;;;;;;;35.20;21.40;;;;;;;9.36;47.04;102444.02;130258;1268;98021;-73
2022/03/22 09:12:31;;;;;;;33.50;19.90;;;;;;;9.47;47.10;102443.06;130359;1270;99186;-73
2022/03/22 09:15:37;;;;;;;32.90;20.00;;;;;;;9.54;46.86;102435.52;130454;1270;98758;-73
2022/03/22 09:18:40;;;;;;;32.60;19.70;;;;;;;9.65;46.57;102438.59;130426;1269;99185;-73
2022/03/22 09:21:43;;;;;;;26.80;17.40;;;;;;;9.78;46.15;102435.64;130602;1268;99216;-73
2022/03/22 09:24:46;;;;;;;26.40;17.40;;;;;;;9.88;45.94;102434.89;130464;1268;98004;-75
2022/03/22 09:27:49;;;;;;;28.40;17.80;;;;;;;9.98;45.86;102433.49;130332;1268;98729;-73
2022/03/22 09:30:52;;;;;;;24.50;16.10;;;;;;;10.08;45.58;102429.86;130293;1268;97996;-76
2022/03/22 09:33:57;;;;;;;21.50;13.00;;;;;;;10.17;44.94;102421.98;130257;1267;99149;-75
2022/03/22 09:37:00;;;;;;;24.90;15.40;;;;;;;10.26;44.57;102422.67;130268;1268;99179;-72
2022/03/22 09:40:04;;;;;;;19.60;12.90;;;;;;;10.34;44.64;102417.60;130463;1268;98059;-73
2022/03/22 09:43:09;;;;;;;21.80;13.90;;;;;;;10.45;44.32;102415.50;130300;1268;99042;-72
2022/03/22 09:46:14;;;;;;;22.40;15.00;;;;;;;10.52;44.24;102413.44;130342;1268;99134;-73
2022/03/22 09:49:17;;;;;;;19.30;12.70;;;;;;;10.61;44.14;102412.12;130368;1268;98160;-71
2022/03/22 09:52:21;;;;;;;19.80;13.60;;;;;;;10.70;43.91;102408.48;130425;1268;99219;-72
2022/03/22 09:55:25;;;;;;;24.70;15.30;;;;;;;10.78;43.72;102404.44;130326;1268;98665;-72
2022/03/22 09:58:27;;;;;;;22.20;14.10;;;;;;;10.86;43.67;102398.73;130311;1268;99148;-72
2022/03/22 10:01:31;;;;;;;23.10;15.10;;;;;;;10.95;43.54;102394.73;130277;1268;97997;-73
2022/03/22 10:04:39;;;;;;;23.70;15.80;;;;;;;11.05;43.54;102398.34;130293;1268;99159;-73
2022/03/22 10:07:42;;;;;;;23.00;15.10;;;;;;;11.12;43.50;102395.17;130090;1268;97996;-72
2022/03/22 10:10:54;;;;;;;23.40;14.80;;;;;;;11.21;43.64;102391.76;130274;1267;98434;-71
2022/03/22 10:13:57;;;;;;;;;;;;;;;11.25;43.39;102386.50;130158;1268;98664;-72
2022/03/22 10:16:59;;;;;;;;;;;;;;;11.35;42.95;102387.77;130450;1268;99086;-72
2022/03/22 10:20:01;;;;;;;23.30;14.90;;;;;;;11.43;43.07;102387.58;130429;1268;99169;-72
2022/03/22 10:23:06;;;;;;;23.50;15.20;;;;;;;11.49;42.70;102385.55;130349;1268;98777;-72
2022/03/22 10:26:09;;;;;;;22.10;14.20;;;;;;;11.50;42.68;102378.90;130356;1267;99152;-73
2022/03/22 10:29:14;;;;;;;22.20;14.60;;;;;;;11.53;42.64;102378.83;130334;1268;97979;-72
2022/03/22 10:32:17;;;;;;;22.30;14.50;;;;;;;11.60;42.02;102378.90;130415;1267;98012;-72
2022/03/22 10:35:21;;;;;;;24.30;15.60;;;;;;;11.63;42.76;102375.64;130371;1268;98266;-72
2022/03/22 10:38:24;;;;;;;32.10;19.20;;;;;;;11.64;42.40;102372.34;130337;1268;97990;-72
2022/03/22 10:41:28;;;;;;;25.00;16.10;;;;;;;11.68;42.03;102369.09;130327;1267;97965;-72
2022/03/22 10:44:35;;;;;;;22.70;15.40;;;;;;;11.76;41.63;102370.09;130422;1268;98084;-73
2022/03/22 10:47:38;;;;;;;24.40;15.80;;;;;;;11.90;41.97;102366.84;130439;1268;99145;-72
2022/03/22 10:50:41;;;;;;;23.70;15.40;;;;;;;12.00;41.78;102366.07;130454;1270;99171;-73
2022/03/22 10:53:45;;;;;;;23.90;15.70;;;;;;;12.08;41.86;102364.81;130221;1268;98754;-71
2022/03/22 10:56:50;;;;;;;25.70;16.40;;;;;;;12.11;42.07;102360.98;130264;1270;98735;-74
2022/03/22 10:59:55;;;;;;;24.10;16.90;;;;;;;12.14;41.48;102356.36;130365;1268;97984;-72
2022/03/22 11:02:58;;;;;;;24.00;15.70;;;;;;;12.17;41.49;102346.98;130315;1267;99175;-72
2022/03/22 11:06:03;;;;;;;22.70;16.40;;;;;;;12.25;41.33;102343.81;130246;1268;99169;-73
2022/03/22 11:09:06;;;;;;;23.60;14.80;;;;;;;12.32;41.23;102340.92;130296;1268;97957;-73
2022/03/22 11:12:11;;;;;;;24.60;16.00;;;;;;;12.46;41.11;102339.02;130261;1267;99175;-72
2022/03/22 11:15:15;;;;;;;22.50;15.80;;;;;;;12.53;40.97;102336.70;130317;1268;99170;-72
2022/03/22 11:18:20;;;;;;;21.20;15.20;;;;;;;12.56;41.29;102325.94;130332;1268;99245;-72
2022/03/22 11:21:25;;;;;;;22.30;15.50;;;;;;;12.52;40.84;102320.13;130276;1268;97988;-72
2022/03/22 11:24:29;;;;;;;22.10;15.10;;;;;;;12.54;40.46;102319.50;130331;1268;99149;-73
2022/03/22 11:27:32;;;;;;;22.00;15.30;;;;;;;12.67;40.54;102317.48;130268;1268;97966;-72
2022/03/22 11:30:36;;;;;;;22.40;16.00;;;;;;;12.76;40.78;102311.40;130192;1268;98957;-70
2022/03/22 11:37:11;;;;;;;20.30;14.00;;;;;;;12.78;40.49;102302.48;129745;1268;99286;-70
2022/03/22 11:43:43;;;;;;;22.50;15.00;;;;;;;12.86;40.07;102299.23;130004;1268;98754;-72
2022/03/22 11:46:48;;;;;;;24.50;15.00;;;;;;;12.93;40.23;102293.29;130264;1268;99134;-72
2022/03/22 11:49:56;;;;;;;22.30;15.00;;;;;;;12.98;39.88;102293.10;130284;1267;97977;-72
2022/03/22 11:53:01;;;;;;;22.90;14.90;;;;;;;13.06;40.20;102289.14;130285;1268;97966;-72
2022/03/22 11:56:04;;;;;;;21.10;15.40;;;;;;;13.09;40.08;102284.34;130348;1268;98007;-72
2022/03/22 11:59:14;;;;;;;22.90;14.90;;;;;;;13.17;39.83;102284.70;130351;1268;99038;-72
2022/03/22 12:02:18;;;;;;;22.40;15.40;;;;;;;13.26;39.71;102287.39;130409;1268;99101;-72
2022/03/22 12:05:23;;;;;;;25.60;16.40;;;;;;;13.33;39.74;102280.39;130336;1268;99039;-72
2022/03/22 12:08:26;;;;;;;22.70;16.20;;;;;;;13.37;39.70;102274.56;130918;1268;98291;-72
2022/03/22 12:11:29;;;;;;;24.40;16.40;;;;;;;13.41;39.56;102268.89;130467;1268;97967;-72
2022/03/22 12:14:34;;;;;;;26.20;16.40;;;;;;;13.44;39.41;102269.20;130294;1268;98798;-72
2022/03/22 12:17:38;;;;;;;25.00;16.80;;;;;;;13.48;39.50;102266.48;130406;1268;99080;-72
2022/03/22 12:20:43;;;;;;;25.60;16.20;;;;;;;13.52;39.25;102260.65;130250;1268;97956;-70
2022/03/22 12:23:46;;;;;;;24.60;16.40;;;;;;;13.55;39.10;102258.12;129903;1268;212386;-70
2022/03/22 12:26:49;;;;;;;24.90;17.10;;;;;;;13.55;38.94;102251.31;130168;1267;98078;-71
2022/03/22 12:29:55;;;;;;;26.40;17.00;;;;;;;13.56;38.74;102248.73;130393;1268;98064;-72
2022/03/22 12:32:59;;;;;;;26.90;18.20;;;;;;;13.62;38.53;102245.43;130173;1268;97954;-72
2022/03/22 12:36:01;;;;;;;24.70;16.80;;;;;;;13.62;38.51;102243.60;130514;1268;99149;-71
2022/03/22 12:39:04;;;;;;;26.80;18.40;;;;;;;13.62;38.62;102238.92;130345;1268;99696;-71
2022/03/22 12:42:08;;;;;;;28.20;17.60;;;;;;;13.68;38.64;102236.48;130357;1267;98003;-71
2022/03/22 12:45:11;;;;;;;170.60;88.00;;;;;;;13.76;38.79;102230.98;130437;1268;97953;-72
2022/03/22 12:48:16;;;;;;;55.50;27.10;;;;;;;13.80;38.58;102228.90;130382;1268;98793;-72
2022/03/22 12:51:19;;;;;;;29.90;19.90;;;;;;;13.85;38.73;102228.30;130298;1268;98769;-74
2022/03/22 12:54:23;;;;;;;28.70;19.10;;;;;;;13.90;38.39;102226.41;130311;1268;98453;-73
2022/03/22 12:57:26;;;;;;;30.30;19.70;;;;;;;13.92;38.42;102224.30;130370;1268;99167;-72
2022/03/22 13:00:31;;;;;;;28.60;18.80;;;;;;;13.89;38.52;102223.48;130434;1268;98075;-72
2022/03/22 13:03:36;;;;;;;30.50;18.80;;;;;;;13.85;38.27;102215.12;130371;1268;99041;-72
2022/03/22 13:06:39;;;;;;;28.10;18.90;;;;;;;13.86;38.12;102219.13;130454;1268;97991;-73
2022/03/22 13:13:03;;;;;;;27.40;19.00;;;;;;;13.92;38.18;102209.64;130281;1268;99175;-71
2022/03/22 13:16:06;;;;;;;44.40;30.40;;;;;;;13.93;38.23;102208.10;130189;1268;98502;-71
2022/03/22 13:19:09;;;;;;;58.10;39.50;;;;;;;14.00;38.22;102203.64;130299;1268;98110;-71
2022/03/22 13:22:17;;;;;;;29.70;20.00;;;;;;;14.03;38.15;102199.08;130197;1268;99175;-72
2022/03/22 13:25:26;;;;;;;25.80;17.30;;;;;;;14.07;38.23;102198.04;130291;1268;98360;-72
2022/03/22 13:28:35;;;;;;;27.20;18.20;;;;;;;14.10;38.05;102196.84;130273;1268;99165;-73
2022/03/22 13:31:37;;;;;;;23.70;16.80;;;;;;;14.12;37.84;102191.02;130311;1268;98352;-74
2022/03/22 13:34:42;;;;;;;27.40;16.90;;;;;;;14.10;37.83;102187.52;130440;1268;98643;-72
2022/03/22 13:37:48;;;;;;;21.90;14.90;;;;;;;14.11;37.76;102182.45;130301;1268;98080;-71
2022/03/22 13:40:54;;;;;;;28.90;21.20;;;;;;;14.13;38.05;102176.21;130414;1268;97955;-72
2022/03/22 13:43:57;;;;;;;35.50;20.90;;;;;;;14.11;37.69;102178.70;130377;1268;98692;-71
2022/03/22 13:47:00;;;;;;;30.20;18.90;;;;;;;14.09;37.56;102172.84;130322;1268;97981;-71
2022/03/22 13:50:12;;;;;;;25.90;15.50;;;;;;;14.06;37.39;102170.35;130285;1268;98350;-71
2022/03/22 13:53:16;;;;;;;20.60;14.70;;;;;;;14.08;37.29;102167.55;130284;1268;98056;-72
2022/03/22 13:56:24;;;;;;;23.90;15.70;;;;;;;14.14;37.24;102166.33;130302;1268;97985;-71
2022/03/22 13:59:27;;;;;;;21.70;14.00;;;;;;;14.20;37.38;102162.77;130349;1268;97975;-71
2022/03/22 14:02:30;;;;;;;20.80;14.00;;;;;;;14.25;37.30;102159.98;130163;1268;98359;-73
2022/03/22 14:05:34;;;;;;;18.30;13.10;;;;;;;14.26;37.16;102156.15;130409;1268;98370;-73
2022/03/22 14:08:39;;;;;;;19.70;13.70;;;;;;;14.23;37.16;102151.04;130373;1268;98065;-73
2022/03/22 14:11:43;;;;;;;22.80;13.80;;;;;;;14.25;37.02;102149.10;130349;1268;97957;-72
2022/03/22 14:14:46;;;;;;;23.00;14.30;;;;;;;14.31;36.93;102151.61;130353;1268;98758;-73
2022/03/22 14:17:49;;;;;;;22.30;14.30;;;;;;;14.35;37.07;102143.55;130231;1268;98776;-73
2022/03/22 14:20:54;;;;;;;67.30;39.50;;;;;;;14.34;36.76;102142.05;130310;1268;98776;-73
2022/03/22 14:23:56;;;;;;;26.30;16.70;;;;;;;14.36;37.00;102142.98;130331;1268;99067;-74
2022/03/22 14:26:59;;;;;;;20.10;13.90;;;;;;;14.34;36.85;102137.91;130619;1268;98665;-72